createdAt,value
2023-04-16T00:11:00.360Z,1
2023-04-16T00:23:00.267Z,1
2023-04-16T00:35:00.254Z,1
2023-04-16T00:47:00.221Z,1
2023-04-16T00:59:00.362Z,1
2023-04-16T01:11:00.298Z,2
2023-04-16T01:23:00.288Z,2
2023-04-16T01:35:00.227Z,2
2023-04-16T01:47:00.532Z,2
2023-04-16T01:59:00.332Z,2
2023-04-16T02:11:00.320Z,3
2023-04-16T02:23:00.460Z,3
2023-04-16T02:35:00.454Z,3
2023-04-16T02:47:00.400Z,3
2023-04-16T02:59:00.347Z,3
2023-04-16T03:11:00.488Z,4
2023-04-16T03:23:00.335Z,4
2023-04-16T03:35:00.513Z,4
2023-04-16T03:47:00.514Z,4
2023-04-16T03:59:00.432Z,4
2023-04-16T04:11:00.578Z,5
2023-04-16T04:23:00.522Z,5
2023-04-16T04:35:00.524Z,5
2023-04-16T04:47:00.459Z,5
2023-04-16T04:59:00.698Z,5
2023-04-16T05:11:00.550Z,6
2023-04-16T05:23:00.535Z,6
2023-04-16T05:35:00.462Z,6
2023-04-16T05:47:00.685Z,6
2023-04-16T05:59:00.586Z,6
2023-04-16T06:11:00.571Z,7
2023-04-16T06:23:00.698Z,7
2023-04-16T06:35:00.685Z,7
2023-04-16T06:47:00.645Z,7
2023-04-16T06:59:00.605Z,7
2023-04-16T07:11:00.731Z,8
2023-04-16T07:23:00.707Z,8
2023-04-16T07:35:00.635Z,8
2023-04-16T07:47:01.046Z,8
2023-04-16T07:59:05.388Z,8
2023-04-16T08:11:00.717Z,9
2023-04-16T08:23:00.661Z,9
2023-04-16T08:35:00.851Z,9
2023-04-16T08:47:00.879Z,9
2023-04-16T08:59:00.785Z,9
2023-04-16T09:11:00.944Z,10
2023-04-16T09:23:00.711Z,10
2023-04-16T09:35:00.850Z,10
2023-04-16T09:47:00.884Z,10
2023-04-16T09:59:01.564Z,10
2023-04-16T10:11:00.967Z,11
2023-04-16T10:23:01.013Z,11
2023-04-16T10:35:00.877Z,11
2023-04-16T10:47:00.845Z,11
2023-04-16T10:59:00.975Z,11
2023-04-16T11:11:00.924Z,12
2023-04-16T11:23:01.046Z,12
2023-04-16T11:35:01.065Z,12
2023-04-16T11:47:01.077Z,12
2023-04-16T11:59:00.961Z,12
2023-04-16T12:11:00.923Z,13
2023-04-16T12:23:01.087Z,13
2023-04-16T12:35:01.052Z,13
2023-04-16T12:47:01.231Z,13
2023-04-16T12:59:00.959Z,13
2023-04-16T13:11:01.108Z,14
2023-04-16T13:23:01.123Z,14
2023-04-16T13:35:01.039Z,14
2023-04-16T13:47:01.023Z,14
2023-04-16T13:59:01.134Z,14
2023-04-16T14:11:01.102Z,15
2023-04-16T14:23:01.031Z,15
2023-04-16T14:35:01.001Z,15
2023-04-16T14:47:01.170Z,15
2023-04-16T14:59:01.112Z,15
2023-04-16T15:11:01.044Z,16
2023-04-16T15:23:01.242Z,16
2023-04-16T15:35:01.173Z,16
2023-04-16T15:47:01.239Z,16
2023-04-16T15:59:01.115Z,16
2023-04-16T16:11:01.300Z,17
2023-04-16T16:23:01.233Z,17
2023-04-16T16:35:01.209Z,17
2023-04-16T16:47:01.443Z,17
2023-04-16T16:59:01.378Z,17
2023-04-16T17:11:01.777Z,18
2023-04-16T17:23:01.247Z,18
2023-04-16T17:35:01.191Z,18
2023-04-16T17:47:01.411Z,18
2023-04-16T17:59:01.329Z,18
2023-04-16T18:11:01.276Z,19
2023-04-16T18:23:01.410Z,19
2023-04-16T18:35:01.470Z,19
2023-04-16T18:47:01.493Z,19
2023-04-16T18:59:01.291Z,19
2023-04-16T19:11:01.518Z,20
2023-04-16T19:23:01.430Z,20
2023-04-16T19:35:01.351Z,20
2023-04-16T19:47:01.364Z,20
2023-04-16T19:59:01.457Z,20
2023-04-16T20:11:01.442Z,21
2023-04-16T20:23:01.444Z,21
2023-04-16T20:35:01.391Z,21
2023-04-16T20:47:01.635Z,21
2023-04-16T20:59:01.549Z,21
2023-04-16T21:11:01.524Z,22
2023-04-16T21:23:01.465Z,22
2023-04-16T21:35:01.598Z,22
2023-04-16T21:47:01.748Z,22
2023-04-16T21:59:01.586Z,22
2023-04-16T22:11:01.658Z,23
2023-04-16T22:23:01.669Z,23
2023-04-16T22:35:01.623Z,23
2023-04-16T22:47:01.577Z,23
2023-04-16T22:59:01.721Z,23
2023-04-16T23:11:01.658Z,0
2023-04-16T23:23:01.622Z,0
2023-04-16T23:35:01.587Z,0
2023-04-16T23:47:01.744Z,0
2023-04-16T23:59:01.655Z,0
